الصفحة الرئيسية
METAR-TAF:

METAR-TAF

مطار :

Clayton, نيومكسيكو, الولايات المتحدة

دائرة عرض: 36-26-54N, خط طول: 103-09-11W, ارتفاع: 1513 متر

مراقبة الطقس الحالي

تاريخ ووقت الإصدار 22 دقيقة قبل الساعة 15:55UTC
ريح 15 عقدة من الشمال تتزايد حتى 21 عقدة
درجة الحرارة 8°درجة مئوية
الرطوبة 49%
ضغط 1027 hPa
الرؤية: 16.1 كم
سماء صافية

METAR: KCAO 251555Z AUTO 35015G21KT 10SM CLR 08/M02 A3033 RMK AO2 SLP263 T00781022

زمن: 10:17 (16:17 UTC)


TAF: مفقودة

أرصاد الطقس والتوقعات من أكثر من 4000 مطار (تقارير الطقس للمطار METAR والتنبؤ بالطقس بالمطارTAF).

المحطات المتاحة هي النقط الصفراء والحمراء على الخريطة.

حرك المؤشر فوق النقطة لمعرفة اسم المحطة.

ثم انقر لمعرفة أرصاد وتوقعات الطقس.

لتغيير الخارطة: اضغط على الأزرار الخضراء مع رمز الصليب الأسود للتكبير. على الزر الأخضر مع شرطة للتصغير، أو على الأسهم الخضراء للخرائط المجاورة.


METAR-TAF: